createdAt,value
2022-08-27T08:58:14.640Z,99915.41
2022-08-27T09:00:17.579Z,99913.09
2022-08-27T09:02:19.938Z,99912.81
2022-08-27T09:04:24.031Z,99914.22
2022-08-27T09:06:38.608Z,99910.66
2022-08-27T09:08:43.390Z,99918.78
2022-08-27T09:10:58.535Z,99906.78
2022-08-27T09:13:04.115Z,99917.91
2022-08-27T09:15:15.501Z,99903.84
2022-08-27T09:17:17.977Z,99901.06
2022-08-27T09:19:24.123Z,99905.34
2022-08-27T09:21:51.265Z,99904.88
2022-08-27T09:24:19.889Z,99896.44
2022-08-27T09:26:26.415Z,99889.03
2022-08-27T09:28:48.916Z,99889.50
2022-08-27T09:30:53.064Z,99875.50
2022-08-27T09:33:04.473Z,99886.25
2022-08-27T09:35:11.512Z,99892.06
2022-08-27T09:37:34.312Z,99879.00
2022-08-27T09:39:46.147Z,99869.34
2022-08-27T09:41:49.606Z,99867.56
2022-08-27T09:44:07.456Z,99878.97
2022-08-27T09:46:24.325Z,99874.88
2022-08-27T09:48:29.253Z,99872.00
2022-08-27T09:50:41.718Z,99875.38
2022-08-27T09:52:58.930Z,99870.22
2022-08-27T09:55:02.308Z,99876.31
2022-08-27T09:57:08.594Z,99869.63
2022-08-27T09:59:11.119Z,99875.06
2022-08-27T10:01:20.104Z,99866.13
2022-08-27T10:03:23.593Z,99875.31
2022-08-27T10:05:32.539Z,99872.22
2022-08-27T10:07:53.889Z,99864.87
2022-08-27T10:10:21.034Z,99865.94
2022-08-27T10:12:38.032Z,99866.94
2022-08-27T10:14:54.911Z,99867.03
2022-08-27T10:17:11.811Z,99868.06
2022-08-27T10:19:49.017Z,99863.75
2022-08-27T10:22:13.106Z,99865.75
2022-08-27T10:24:15.629Z,99865.88
2022-08-27T10:26:29.592Z,99859.88
2022-08-27T10:28:36.791Z,99864.78
2022-08-27T10:31:08.342Z,99862.41
2022-08-27T10:33:10.639Z,99859.34
2022-08-27T10:35:13.371Z,99865.25
2022-08-27T10:37:36.678Z,99857.72
2022-08-27T10:40:03.142Z,99862.22
2022-08-27T10:42:26.893Z,99861.75
2022-08-27T10:44:59.843Z,99862.47
2022-08-27T10:47:36.107Z,99854.69
2022-08-27T10:49:50.770Z,99851.53
2022-08-27T10:52:31.667Z,99857.50
2022-08-27T10:54:52.033Z,99850.94
2022-08-27T10:57:54.023Z,99851.72
2022-08-27T11:00:13.572Z,99856.34
2022-08-27T11:02:23.176Z,99852.84
2022-08-27T11:04:31.303Z,99853.63
2022-08-27T11:06:43.032Z,99848.72
2022-08-27T11:08:50.865Z,99835.84
2022-08-27T11:13:51.765Z,99836.62
2022-08-27T11:15:56.739Z,99837.75
2022-08-27T11:18:20.879Z,99832.81
2022-08-27T11:20:29.634Z,99837.69
2022-08-27T11:22:47.537Z,99833.28
2022-08-27T11:24:59.930Z,99831.69
2022-08-27T11:27:07.390Z,99831.16
2022-08-27T11:29:26.491Z,99832.25
2022-08-27T11:31:38.402Z,99815.97
2022-08-27T11:34:04.183Z,99816.53
2022-08-27T11:36:16.303Z,99815.31
2022-08-27T11:38:52.865Z,99811.37
2022-08-27T11:41:16.309Z,99819.78
2022-08-27T11:43:26.643Z,99797.06
2022-08-27T11:45:38.481Z,99804.50
2022-08-27T11:47:58.182Z,99795.09
2022-08-27T11:50:04.541Z,99807.53
2022-08-27T11:52:08.429Z,99803.63
2022-08-27T11:54:23.879Z,99804.06
2022-08-27T11:56:30.200Z,99800.75
2022-08-27T11:58:34.837Z,99794.66
2022-08-27T12:00:58.884Z,99793.88
2022-08-27T12:03:11.184Z,99783.56
2022-08-27T12:05:21.172Z,99789.25
2022-08-27T12:07:33.478Z,99787.37
2022-08-27T12:09:48.274Z,99786.56
2022-08-27T12:12:19.700Z,99779.75
2022-08-27T12:15:06.242Z,99777.06
2022-08-27T12:17:30.502Z,99773.25
2022-08-27T12:19:51.862Z,99769.88
2022-08-27T12:22:15.951Z,99769.75
2022-08-27T12:24:37.516Z,99779.69
2022-08-27T12:26:43.420Z,99771.25
2022-08-27T12:28:45.753Z,99761.59
2022-08-27T12:30:52.027Z,99765.03
2022-08-27T12:32:57.924Z,99774.34
2022-08-27T12:35:12.237Z,99763.53
2022-08-27T12:37:17.119Z,99756.97
2022-08-27T12:39:25.204Z,99757.81
2022-08-27T12:41:44.748Z,99753.19
2022-08-27T12:43:47.571Z,99746.31
2022-08-27T12:46:11.556Z,99748.00
2022-08-27T12:48:15.328Z,99741.22
2022-08-27T12:50:28.164Z,99742.00
2022-08-27T12:52:57.220Z,99741.37
2022-08-27T12:55:18.093Z,99741.53
2022-08-27T12:57:39.210Z,99742.09
2022-08-27T13:00:04.978Z,99737.25
2022-08-27T13:02:07.306Z,99744.28
2022-08-27T13:04:38.273Z,99732.81
2022-08-27T13:06:45.520Z,99724.69
2022-08-27T13:08:53.391Z,99719.81
2022-08-27T13:10:57.922Z,99722.31
2022-08-27T13:13:05.018Z,99729.13
2022-08-27T13:15:10.701Z,99733.34
2022-08-27T13:17:20.627Z,99735.59
2022-08-27T13:19:28.478Z,99732.63
2022-08-27T13:21:33.051Z,99739.34
2022-08-27T13:23:35.643Z,99746.41
2022-08-27T13:25:38.053Z,99743.72
2022-08-27T13:27:40.390Z,99737.97
2022-08-27T13:29:43.874Z,99740.34
2022-08-27T13:31:49.336Z,99750.75
2022-08-27T13:33:54.874Z,99744.63
2022-08-27T13:35:58.327Z,99748.06
2022-08-27T13:38:02.458Z,99746.25
2022-08-27T13:40:05.303Z,99744.34
2022-08-27T13:42:09.244Z,99754.97
2022-08-27T13:44:16.612Z,99748.97
2022-08-27T13:46:23.033Z,99752.53
2022-08-27T13:48:25.813Z,99747.63
2022-08-27T13:50:31.455Z,99743.25
2022-08-27T13:52:59.506Z,99748.78
2022-08-27T13:55:08.325Z,99753.19
2022-08-27T13:57:11.353Z,99751.38
2022-08-27T13:59:19.438Z,99743.53
2022-08-27T14:01:29.544Z,99744.69
2022-08-27T14:03:39.172Z,99751.56
2022-08-27T14:05:48.368Z,99750.97
2022-08-27T14:07:56.754Z,99749.19
2022-08-27T14:10:07.209Z,99742.94
2022-08-27T14:12:10.751Z,99743.78
2022-08-27T14:14:14.560Z,99742.28
2022-08-27T14:16:28.789Z,99745.56
2022-08-27T14:18:57.824Z,99742.87
2022-08-27T14:20:59.091Z,99737.16
2022-08-27T14:23:01.716Z,99741.37
2022-08-27T14:25:04.587Z,99747.84
2022-08-27T14:27:13.939Z,99740.75
2022-08-27T14:29:17.824Z,99742.00
2022-08-27T14:31:20.222Z,99742.66
2022-08-27T14:33:22.655Z,99741.84
2022-08-27T14:35:25.785Z,99744.34
2022-08-27T14:37:28.261Z,99734.06
2022-08-27T14:39:30.737Z,99736.03
2022-08-27T14:41:34.117Z,99735.94
2022-08-27T14:43:37.938Z,99732.78
2022-08-27T14:45:42.211Z,99733.94
2022-08-27T14:47:45.317Z,99734.25
2022-08-27T14:49:47.611Z,99730.78
2022-08-27T14:51:50.195Z,99731.75
2022-08-27T14:53:54.184Z,99736.66
2022-08-27T14:55:58.943Z,99738.66
2022-08-27T14:58:01.609Z,99736.06
2022-08-27T15:00:07.173Z,99749.91
2022-08-27T15:02:12.196Z,99749.16
2022-08-27T15:04:14.946Z,99748.84
2022-08-27T15:06:19.079Z,99742.28
2022-08-27T15:08:29.150Z,99750.59
2022-08-27T15:10:32.420Z,99743.28
2022-08-27T15:12:35.364Z,99748.44
2022-08-27T15:14:38.027Z,99744.19
2022-08-27T15:16:42.246Z,99751.34
2022-08-27T15:18:44.969Z,99751.41
2022-08-27T15:21:03.038Z,99757.09
2022-08-27T15:23:05.454Z,99751.09
2022-08-27T15:25:09.865Z,99753.88
2022-08-27T15:27:12.411Z,99752.13
2022-08-27T15:29:15.173Z,99755.50
2022-08-27T15:31:19.096Z,99754.88
2022-08-27T15:33:21.451Z,99756.59
2022-08-27T15:35:26.817Z,99757.22
2022-08-27T15:37:30.619Z,99754.25
2022-08-27T15:39:32.987Z,99756.97
2022-08-27T15:41:50.815Z,99752.00
2022-08-27T15:43:59.266Z,99756.78
2022-08-27T15:46:01.646Z,99756.84
2022-08-27T15:48:04.857Z,99757.72
2022-08-27T15:50:07.946Z,99751.53
2022-08-27T15:52:16.820Z,99755.88
2022-08-27T15:54:19.346Z,99757.66
2022-08-27T15:56:22.046Z,99760.53
2022-08-27T15:58:24.340Z,99756.94
2022-08-27T16:00:33.844Z,99759.22
2022-08-27T16:02:36.591Z,99754.63
2022-08-27T16:04:38.928Z,99757.81
2022-08-27T16:06:41.211Z,99755.75
2022-08-27T16:08:43.936Z,99756.41
2022-08-27T16:10:46.219Z,99756.06
2022-08-27T16:12:48.635Z,99756.25
2022-08-27T16:14:51.185Z,99758.44
2022-08-27T16:16:53.558Z,99766.72
2022-08-27T16:18:55.995Z,99763.03
2022-08-27T16:21:00.221Z,99762.28
2022-08-27T16:23:02.936Z,99758.50
2022-08-27T16:25:07.217Z,99759.72
2022-08-27T16:27:09.944Z,99769.19
2022-08-27T16:29:12.230Z,99762.66
2022-08-27T16:31:15.175Z,99772.25
2022-08-27T16:33:18.173Z,99765.59
2022-08-27T16:35:21.092Z,99766.41
2022-08-27T16:37:25.052Z,99763.47
2022-08-27T16:39:33.115Z,99771.19
2022-08-27T16:41:37.340Z,99759.69
2022-08-27T16:43:40.740Z,99765.72
2022-08-27T16:45:43.481Z,99761.84
2022-08-27T16:48:04.465Z,99765.19
2022-08-27T16:50:26.374Z,99767.50
2022-08-27T16:52:29.311Z,99764.84
2022-08-27T16:54:31.682Z,99767.09
2022-08-27T16:56:37.757Z,99767.34
2022-08-27T16:58:40.643Z,99768.53
2022-08-27T17:00:44.931Z,99764.59
2022-08-27T17:02:47.309Z,99765.75
2022-08-27T17:05:07.261Z,99763.75
2022-08-27T17:07:12.696Z,99770.47
2022-08-27T17:09:15.440Z,99767.88
2022-08-27T17:11:26.823Z,99772.28
2022-08-27T17:13:32.708Z,99776.00
2022-08-27T17:15:35.467Z,99781.22
2022-08-27T17:17:38.861Z,99774.97
2022-08-27T17:19:41.146Z,99785.91
2022-08-27T17:24:58.642Z,99790.78
2022-08-27T17:27:01.778Z,99797.25
2022-08-27T17:29:04.075Z,99805.34
2022-08-27T17:31:08.617Z,99805.00
2022-08-27T17:33:19.422Z,99813.91
2022-08-27T17:35:22.012Z,99819.78
2022-08-27T17:37:24.299Z,99820.88
2022-08-27T17:39:27.689Z,99822.03
2022-08-27T17:41:33.669Z,99828.25
2022-08-27T17:43:36.670Z,99831.75
2022-08-27T17:45:39.563Z,99842.97
2022-08-27T17:47:41.900Z,99838.63
2022-08-27T17:49:44.199Z,99834.66
2022-08-27T17:51:48.347Z,99837.72
2022-08-27T17:53:57.229Z,99841.59
2022-08-27T17:56:03.009Z,99839.63
2022-08-27T17:58:05.827Z,99849.59
2022-08-27T18:00:10.989Z,99848.50
2022-08-27T18:02:22.346Z,99850.41
2022-08-27T18:04:24.964Z,99854.50
2022-08-27T18:06:27.971Z,99852.81
2022-08-27T18:08:30.594Z,99856.47
2022-08-27T18:10:33.584Z,99852.75
2022-08-27T18:12:36.843Z,99861.97
2022-08-27T18:14:39.473Z,99854.34
2022-08-27T18:16:41.886Z,99850.34
2022-08-27T18:18:44.668Z,99850.31
2022-08-27T18:20:47.354Z,99853.75
2022-08-27T18:22:50.246Z,99855.38
2022-08-27T18:24:55.319Z,99854.75
2022-08-27T18:26:58.568Z,99858.88
2022-08-27T18:29:01.079Z,99859.06
2022-08-27T18:31:05.635Z,99856.78
2022-08-27T18:33:10.706Z,99862.50
2022-08-27T18:35:22.488Z,99871.47
2022-08-27T18:37:24.838Z,99871.25
2022-08-27T18:39:27.829Z,99864.56
2022-08-27T18:41:31.171Z,99866.88
2022-08-27T18:43:34.994Z,99866.41
2022-08-27T18:45:39.491Z,99871.66
2022-08-27T18:47:42.577Z,99871.69
2022-08-27T18:49:44.834Z,99865.66
2022-08-27T18:51:52.041Z,99869.44
2022-08-27T18:53:55.012Z,99868.00
2022-08-27T18:55:58.054Z,99878.37
2022-08-27T18:58:00.580Z,99879.28
2022-08-27T19:00:05.373Z,99881.88
2022-08-27T19:02:15.127Z,99883.31
2022-08-27T19:04:19.034Z,99880.25
2022-08-27T19:06:22.012Z,99888.66
2022-08-27T19:08:24.756Z,99883.28
2022-08-27T19:10:27.461Z,99888.88
2022-08-27T19:12:29.749Z,99887.16
2022-08-27T19:14:32.496Z,99886.94
2022-08-27T19:16:44.366Z,99879.78
2022-08-27T19:18:47.059Z,99881.22
2022-08-27T19:20:49.506Z,99879.41
2022-08-27T19:22:52.158Z,99866.09
2022-08-27T19:24:54.600Z,99868.62
2022-08-27T19:26:57.207Z,99863.25
2022-08-27T19:28:59.927Z,99869.13
2022-08-27T19:31:02.349Z,99863.06
2022-08-27T19:33:04.641Z,99864.28
2022-08-27T19:35:07.719Z,99854.25
2022-08-27T19:37:16.707Z,99861.25
2022-08-27T19:39:19.062Z,99861.38
2022-08-27T19:41:27.221Z,99853.28
2022-08-27T19:43:30.497Z,99859.47
2022-08-27T19:45:33.305Z,99861.56
2022-08-27T19:47:36.944Z,99869.44
2022-08-27T19:49:40.388Z,99865.97
2022-08-27T19:51:42.815Z,99873.16
2022-08-27T19:53:45.714Z,99872.53
2022-08-27T19:55:48.496Z,99885.16
2022-08-27T19:57:50.891Z,99888.69
2022-08-27T19:59:53.616Z,99883.91
2022-08-27T20:01:56.227Z,99888.59
2022-08-27T20:03:58.908Z,99888.25
2022-08-27T20:06:02.143Z,99886.81
2022-08-27T20:08:05.871Z,99892.59
2022-08-27T20:10:09.174Z,99893.06
2022-08-27T20:12:13.966Z,99889.56
2022-08-27T20:14:17.078Z,99892.66
2022-08-27T20:16:20.082Z,99894.28
2022-08-27T20:18:22.669Z,99894.47
2022-08-27T20:20:25.897Z,99896.13
2022-08-27T20:22:28.472Z,99911.72
2022-08-27T20:24:31.594Z,99906.16
2022-08-27T20:26:34.074Z,99906.62
2022-08-27T20:28:40.303Z,99898.75
2022-08-27T20:30:43.815Z,99902.09
2022-08-27T20:32:50.919Z,99903.34
2022-08-27T20:34:53.593Z,99894.72
2022-08-27T20:36:55.919Z,99894.50
2022-08-27T20:38:58.496Z,99892.47
2022-08-27T20:41:02.513Z,99901.34
2022-08-27T20:43:05.004Z,99898.19
2022-08-27T20:45:11.881Z,99899.22
2022-08-27T20:47:16.526Z,99896.97
2022-08-27T20:49:18.829Z,99897.38
2022-08-27T20:51:21.182Z,99905.25
2022-08-27T20:53:23.783Z,99899.44
2022-08-27T20:55:26.198Z,99908.34
2022-08-27T20:57:28.590Z,99907.31
2022-08-27T20:59:50.144Z,99914.16
2022-08-27T21:01:52.401Z,99911.06
2022-08-27T21:03:54.687Z,99907.53
2022-08-27T21:05:57.221Z,99906.91
2022-08-27T21:07:59.657Z,99913.09
2022-08-27T21:10:01.991Z,99906.84
2022-08-27T21:12:04.794Z,99909.75
2022-08-27T21:14:07.128Z,99910.34
2022-08-27T21:16:09.824Z,99912.47
2022-08-27T21:18:13.022Z,99910.63
2022-08-27T21:20:15.678Z,99911.81
2022-08-27T21:22:18.189Z,99914.31
2022-08-27T21:24:22.574Z,99914.53
2022-08-27T21:26:24.819Z,99911.22
2022-08-27T21:28:28.305Z,99919.72
2022-08-27T21:30:31.472Z,99910.19
2022-08-27T21:32:33.918Z,99919.94
2022-08-27T21:34:36.440Z,99924.91
2022-08-27T21:36:39.085Z,99926.13
2022-08-27T21:38:41.463Z,99928.00
2022-08-27T21:40:43.858Z,99919.13
2022-08-27T21:42:47.292Z,99925.91
2022-08-27T21:44:49.604Z,99930.66
2022-08-27T21:46:51.986Z,99927.59
2022-08-27T21:48:58.952Z,99930.06
2022-08-27T21:51:12.218Z,99928.22
2022-08-27T21:53:15.319Z,99927.78
2022-08-27T21:55:18.495Z,99927.16
2022-08-27T21:57:20.820Z,99926.56
2022-08-27T21:59:23.109Z,99927.78
2022-08-27T22:01:25.703Z,99929.88
2022-08-27T22:03:28.359Z,99926.75
2022-08-27T22:05:30.719Z,99928.62
2022-08-27T22:07:33.051Z,99923.22
2022-08-27T22:09:35.724Z,99920.72
2022-08-27T22:11:38.084Z,99919.47
2022-08-27T22:13:40.874Z,99920.09
2022-08-27T22:15:43.569Z,99917.84
2022-08-27T22:17:50.722Z,99920.50
